Halli, Halli Airport (EFHA)

NameHalli Airport
CityHalli
CountryFinland
ICAOEFHA
IATAKEV
Altitude146 m
CoordinatesGoogle Map
Live Air TrafficLiveATC.net
METAREFHA 242150Z AUTO 30004KT CAVOK 12/05 Q1029
2019-06-24 21:50:00 Wind: West-Northwest (300°) 2.06 m/s - Visibility: > 10000 m - Weather: CAVOK - Temperature: 12 °C - Dew point: 5 °C - Humidity: 62.5% - Pressure: 1029 hPa

Sorry, no flights used the airport in this database.